Time;durP1;ratioP1;P1;durP2;ratioP2;P2;SDS_P1;SDS_P2;PMS_P1;PMS_P2;Temp;Humidity;BMP_temperature;BMP_pressure;BME280_temperature;BME280_humidity;BME280_pressure;Samples;Min_cycle;Max_cycle;Signal;HPM_P1;HPM_P2
2022/05/13 00:01:22;;;;;;;7.50;3.40;;;;;14.50;97677.20;;;;110785;1250;41143;-71
2022/05/13 00:03:53;;;;;;;8.90;3.70;;;;;14.50;97676.60;;;;110885;1252;41462;-70
2022/05/13 00:06:26;;;;;;;10.80;3.80;;;;;14.50;97678.00;;;;110818;1250;41764;-69
2022/05/13 00:08:58;;;;;;;8.70;4.30;;;;;14.40;97677.40;;;;110941;1251;41232;-70
2022/05/13 00:11:30;;;;;;;8.50;3.70;;;;;14.38;97672.20;;;;110848;1250;42148;-70
2022/05/13 00:14:03;;;;;;;7.70;3.70;;;;;14.30;97670.60;;;;110886;1250;41354;-68
2022/05/13 00:16:36;;;;;;;9.70;3.40;;;;;14.30;97671.20;;;;110865;1250;41269;-70
2022/05/13 00:19:10;;;;;;;8.20;3.50;;;;;14.30;97673.60;;;;110765;1253;41150;-69
2022/05/13 00:21:41;;;;;;;8.50;3.60;;;;;14.30;97677.40;;;;110782;1251;42370;-70
2022/05/13 00:24:12;;;;;;;9.30;3.90;;;;;14.24;97676.80;;;;110761;1252;42688;-71
2022/05/13 00:26:44;;;;;;;8.30;3.90;;;;;14.20;97674.40;;;;110910;1252;41753;-70
2022/05/13 00:29:16;;;;;;;9.20;3.90;;;;;14.20;97674.00;;;;110816;1253;41158;-70
2022/05/13 00:31:49;;;;;;;8.80;4.00;;;;;14.20;97672.20;;;;110744;1251;41657;-71
2022/05/13 00:34:19;;;;;;;9.00;4.00;;;;;14.20;97671.60;;;;110849;1251;41626;-70
2022/05/13 00:36:50;;;;;;;8.00;3.70;;;;;14.20;97668.80;;;;111067;1250;41348;-70
2022/05/13 00:39:20;;;;;;;8.50;3.60;;;;;14.16;97669.60;;;;110992;1250;41195;-70
2022/05/13 00:41:51;;;;;;;10.40;3.30;;;;;14.10;97672.20;;;;110711;1252;41146;-70
2022/05/13 00:44:21;;;;;;;7.70;3.50;;;;;14.10;97669.00;;;;110878;1252;41559;-70
2022/05/13 00:46:56;;;;;;;8.20;3.70;;;;;14.10;97669.80;;;;110702;1253;41951;-71
2022/05/13 00:49:28;;;;;;;7.90;3.60;;;;;14.10;97671.20;;;;110826;1253;41141;-71
2022/05/13 00:52:00;;;;;;;9.70;3.90;;;;;14.04;97679.00;;;;110664;1253;41158;-70
2022/05/13 00:54:33;;;;;;;8.90;3.60;;;;;14.00;97678.00;;;;110682;1253;41258;-70
2022/05/13 00:57:23;;;;;;;9.30;4.00;;;;;14.00;97677.40;;;;110932;1250;41550;-70
2022/05/13 00:59:58;;;;;;;10.70;4.50;;;;;14.00;97678.00;;;;110905;1250;41587;-72
2022/05/13 01:02:30;;;;;;;10.60;4.50;;;;;14.00;97678.00;;;;110815;1250;41148;-71
2022/05/13 01:05:05;;;;;;;10.30;4.70;;;;;13.90;97682.60;;;;110892;1250;42346;-70
2022/05/13 01:07:35;;;;;;;8.40;4.10;;;;;13.80;97683.00;;;;111082;1250;41160;-70
2022/05/13 01:10:08;;;;;;;7.10;3.30;;;;;13.70;97686.00;;;;111013;1250;41479;-70
2022/05/13 01:12:42;;;;;;;8.30;3.10;;;;;13.70;97683.60;;;;110832;1251;42364;-70
2022/05/13 01:15:36;;;;;;;7.70;3.70;;;;;13.70;97680.60;;;;110875;1251;41207;-70
2022/05/13 01:18:07;;;;;;;9.90;3.70;;;;;13.70;97679.40;;;;111033;1250;41140;-71
2022/05/13 01:20:50;;;;;;;9.10;3.60;;;;;13.66;97678.80;;;;111082;1250;41764;-71
2022/05/13 01:23:32;;;;;;;8.80;3.60;;;;;13.60;97676.00;;;;110921;1248;41260;-70
2022/05/13 01:26:06;;;;;;;8.70;3.60;;;;;13.60;97680.60;;;;111108;1250;41635;-69
2022/05/13 01:28:40;;;;;;;9.50;4.20;;;;;13.60;97675.80;;;;110990;1252;41197;-70
2022/05/13 01:31:15;;;;;;;8.50;3.50;;;;;13.58;97674.40;;;;111038;1250;42377;-71
2022/05/13 01:33:49;;;;;;;8.90;3.60;;;;;13.50;97675.00;;;;110932;1251;41152;-72
2022/05/13 01:36:21;;;;;;;10.10;4.70;;;;;13.50;97674.20;;;;110852;1252;41975;-73
2022/05/13 01:38:52;;;;;;;8.70;4.00;;;;;13.50;97672.80;;;;110860;1251;41194;-71
2022/05/13 01:41:28;;;;;;;11.10;4.40;;;;;13.50;97674.00;;;;110853;1251;41152;-71
2022/05/13 01:44:11;;;;;;;10.20;5.00;;;;;13.50;97676.20;;;;111101;1250;41149;-71
2022/05/13 01:46:41;;;;;;;10.20;4.60;;;;;13.40;97674.00;;;;110943;1251;42390;-69
2022/05/13 01:49:10;;;;;;;11.30;4.60;;;;;13.40;97674.40;;;;111091;1250;41774;-71
2022/05/13 01:51:40;;;;;;;9.30;4.40;;;;;13.30;97671.80;;;;111017;1250;41177;-71
2022/05/13 01:54:09;;;;;;;9.40;3.90;;;;;13.30;97669.20;;;;110928;1250;41314;-70
2022/05/13 01:56:40;;;;;;;8.00;3.70;;;;;13.30;97666.20;;;;110948;1251;41958;-70
2022/05/13 01:59:10;;;;;;;9.20;3.80;;;;;13.30;97661.60;;;;111083;1250;41254;-71
2022/05/13 02:01:41;;;;;;;9.40;4.00;;;;;13.24;97662.20;;;;111103;1250;41376;-71
2022/05/13 02:04:12;;;;;;;9.90;4.70;;;;;13.24;97663.40;;;;110912;1251;41135;-69
2022/05/13 02:06:42;;;;;;;;;;;;;13.20;97661.20;;;;110753;1253;41383;-70
2022/05/13 02:09:12;;;;;;;9.80;3.90;;;;;13.20;97660.80;;;;110914;1253;41191;-70
2022/05/13 02:11:45;;;;;;;9.90;4.00;;;;;13.20;97662.80;;;;110921;1252;41261;-70
2022/05/13 02:14:19;;;;;;;10.30;3.80;;;;;13.20;97664.00;;;;110977;1253;41163;-70
2022/05/13 02:16:50;;;;;;;9.90;4.70;;;;;13.20;97666.40;;;;110942;1250;41241;-71
2022/05/13 02:19:20;;;;;;;8.90;4.00;;;;;13.10;97669.40;;;;110943;1251;41139;-70
2022/05/13 02:21:50;;;;;;;10.00;4.80;;;;;13.10;97665.40;;;;111005;1250;42365;-71
2022/05/13 02:24:20;;;;;;;19.10;4.20;;;;;13.10;97670.60;;;;110924;1250;41189;-72
2022/05/13 02:26:51;;;;;;;8.90;3.90;;;;;13.00;97670.00;;;;110842;1252;41146;-70
2022/05/13 02:29:21;;;;;;;11.20;5.00;;;;;13.00;97668.00;;;;110903;1252;41686;-74
2022/05/13 02:31:51;;;;;;;8.80;4.10;;;;;13.00;97667.80;;;;110792;1251;41200;-70
2022/05/13 02:34:22;;;;;;;7.50;3.50;;;;;13.00;97666.00;;;;111027;1252;41255;-70
2022/05/13 02:36:52;;;;;;;9.10;3.90;;;;;12.92;97665.20;;;;110841;1252;41155;-70
2022/05/13 02:39:22;;;;;;;11.30;3.80;;;;;12.90;97662.40;;;;110857;1250;41268;-69
2022/05/13 02:41:52;;;;;;;8.30;3.70;;;;;12.90;97665.80;;;;110878;1251;41252;-70
2022/05/13 02:44:24;;;;;;;8.80;3.70;;;;;12.84;97662.60;;;;110926;1250;41354;-70
2022/05/13 02:46:55;;;;;;;9.60;3.80;;;;;12.80;97662.60;;;;110992;1250;41144;-71
2022/05/13 02:49:24;;;;;;;8.10;4.20;;;;;12.80;97663.40;;;;110966;1250;41126;-69
2022/05/13 02:51:54;;;;;;;8.60;4.30;;;;;12.80;97668.40;;;;110936;1252;41141;-70
2022/05/13 02:54:24;;;;;;;9.60;4.30;;;;;12.80;97669.60;;;;111005;1250;41728;-70
2022/05/13 02:56:54;;;;;;;11.10;4.70;;;;;12.80;97667.40;;;;110924;1252;41272;-70
2022/05/13 02:59:24;;;;;;;9.20;4.20;;;;;12.80;97669.80;;;;110992;1250;41920;-70
2022/05/13 03:01:54;;;;;;;12.40;5.50;;;;;12.80;97663.60;;;;110880;1251;41626;-70
2022/05/13 03:04:23;;;;;;;14.40;5.40;;;;;12.80;97659.00;;;;110905;1250;42262;-70
2022/05/13 03:06:53;;;;;;;11.40;5.20;;;;;12.80;97669.20;;;;110985;1252;41316;-69
2022/05/13 03:09:22;;;;;;;10.40;5.00;;;;;12.80;97671.80;;;;111128;1250;41152;-70
2022/05/13 03:11:52;;;;;;;9.40;4.30;;;;;12.80;97674.20;;;;111080;1250;41337;-69
2022/05/13 03:14:22;;;;;;;9.50;4.30;;;;;12.80;97672.20;;;;111002;1249;41271;-71
2022/05/13 03:16:51;;;;;;;9.70;4.60;;;;;12.80;97668.80;;;;110751;1250;41273;-70
2022/05/13 03:19:21;;;;;;;8.50;4.40;;;;;12.80;97672.80;;;;111080;1250;41135;-70
2022/05/13 03:21:50;;;;;;;8.70;3.60;;;;;12.80;97668.80;;;;111041;1250;41052;-70
2022/05/13 03:24:19;;;;;;;11.00;4.10;;;;;12.80;97664.60;;;;110901;1251;42146;-70
2022/05/13 03:26:50;;;;;;;9.60;3.70;;;;;12.82;97667.20;;;;111138;1250;41143;-70
2022/05/13 03:29:21;;;;;;;11.10;3.70;;;;;12.90;97666.00;;;;111013;1251;41918;-70
2022/05/13 03:31:52;;;;;;;9.80;3.90;;;;;12.90;97665.80;;;;110879;1250;41252;-71
2022/05/13 03:34:22;;;;;;;9.00;3.60;;;;;12.92;97667.80;;;;110998;1250;41254;-71
2022/05/13 03:36:51;;;;;;;8.70;3.60;;;;;13.00;97666.00;;;;110870;1250;41307;-69
2022/05/13 03:39:21;;;;;;;8.00;3.80;;;;;13.00;97668.80;;;;110850;1251;42220;-70
2022/05/13 03:41:51;;;;;;;8.30;4.20;;;;;13.04;97673.20;;;;110890;1251;41149;-71
2022/05/13 03:44:21;;;;;;;8.30;3.90;;;;;13.10;97668.80;;;;110847;1251;42372;-71
2022/05/13 03:46:50;;;;;;;7.70;3.60;;;;;13.20;97671.20;;;;111026;1251;41709;-71
2022/05/13 03:49:19;;;;;;;9.30;4.00;;;;;13.20;97677.00;;;;110889;1250;41855;-70
2022/05/13 03:51:48;;;;;;;10.40;4.20;;;;;13.24;97681.80;;;;110839;1250;41143;-70
2022/05/13 03:54:18;;;;;;;8.00;3.50;;;;;13.32;97683.20;;;;110919;1251;41728;-70
2022/05/13 03:56:47;;;;;;;8.00;3.60;;;;;13.52;97680.40;;;;110931;1250;41415;-70
2022/05/13 03:59:17;;;;;;;8.50;4.20;;;;;14.16;97661.80;;;;111035;1250;41257;-70
2022/05/13 04:01:46;;;;;;;9.60;3.80;;;;;15.04;97657.80;;;;110901;1250;41474;-71
2022/05/13 04:04:20;;;;;;;8.80;3.80;;;;;15.90;97656.00;;;;110773;1252;41276;-71
2022/05/13 04:09:38;;;;;;;7.70;3.50;;;;;17.44;97649.00;;;;110868;1252;42193;-70
2022/05/13 04:17:45;;;;;;;9.70;3.70;;;;;19.16;97642.60;;;;110820;1250;42435;-70
2022/05/13 04:20:21;;;;;;;14.80;3.70;;;;;19.70;97643.20;;;;110671;1253;41152;-71
2022/05/13 04:22:50;;;;;;;7.90;3.90;;;;;20.16;97642.20;;;;110913;1252;42294;-71
2022/05/13 04:25:19;;;;;;;12.50;3.80;;;;;20.60;97634.80;;;;110762;1252;41221;-70
2022/05/13 04:27:49;;;;;;;9.90;4.10;;;;;21.00;97641.20;;;;110962;1252;42276;-71
2022/05/13 04:30:20;;;;;;;9.60;4.50;;;;;21.40;97646.60;;;;110794;1250;41153;-70
2022/05/13 04:32:49;;;;;;;11.70;4.50;;;;;21.80;97644.40;;;;110702;1252;41185;-69
2022/05/13 04:35:19;;;;;;;10.60;4.60;;;;;22.08;97650.40;;;;110768;1250;41162;-71
2022/05/13 04:37:48;;;;;;;10.30;4.10;;;;;22.40;97646.20;;;;110734;1252;41937;-74
2022/05/13 04:40:19;;;;;;;9.50;3.70;;;;;22.80;97646.60;;;;110756;1252;41605;-71
2022/05/13 04:42:51;;;;;;;8.70;4.20;;;;;23.06;97639.80;;;;110624;1251;41760;-71
2022/05/13 04:45:24;;;;;;;11.50;3.90;;;;;23.00;97644.80;;;;110954;1250;41257;-70
2022/05/13 04:48:17;;;;;;;9.30;3.80;;;;;23.20;97647.40;;;;110953;1250;41128;-71
2022/05/13 04:50:54;;;;;;;11.40;3.30;;;;;23.60;97647.20;;;;110783;1250;41577;-70
2022/05/13 04:53:27;;;;;;;10.00;3.50;;;;;24.04;97646.40;;;;110913;1252;41274;-69
2022/05/13 04:55:58;;;;;;;7.80;3.40;;;;;24.40;97647.80;;;;110862;1250;41252;-70
2022/05/13 04:58:28;;;;;;;8.20;3.50;;;;;24.80;97647.20;;;;110910;1250;41152;-70
2022/05/13 05:00:58;;;;;;;9.80;3.60;;;;;25.20;97647.20;;;;110973;1250;41355;-70
2022/05/13 05:03:30;;;;;;;8.70;4.10;;;;;25.42;97645.20;;;;110885;1250;41144;-70
2022/05/13 05:06:00;;;;;;;11.10;3.50;;;;;25.50;97649.20;;;;110965;1250;41645;-71
2022/05/13 05:08:30;;;;;;;;;;;;;25.70;97649.00;;;;110976;1250;41946;-70
2022/05/13 05:11:02;;;;;;;10.10;3.70;;;;;26.20;97650.80;;;;110997;1251;41256;-71
2022/05/13 05:13:34;;;;;;;11.00;3.80;;;;;26.50;97654.80;;;;110594;1251;41146;-70
2022/05/13 05:16:06;;;;;;;10.90;3.30;;;;;26.90;97652.20;;;;110982;1250;41158;-70
2022/05/13 05:18:37;;;;;;;12.80;3.80;;;;;27.20;97658.20;;;;110939;1250;41675;-70
2022/05/13 05:21:08;;;;;;;9.20;3.90;;;;;27.40;97659.80;;;;110734;1252;40715;-71
2022/05/13 05:23:38;;;;;;;;;;;;;27.30;97657.20;;;;110908;1250;42357;-69
2022/05/13 05:26:07;;;;;;;10.20;3.50;;;;;27.30;97656.00;;;;110832;1250;42268;-70
2022/05/13 05:28:39;;;;;;;14.30;3.30;;;;;27.10;97657.40;;;;110939;1250;42390;-71
2022/05/13 05:31:11;;;;;;;10.40;3.50;;;;;27.12;97653.20;;;;110806;1253;41317;-72
2022/05/13 05:33:42;;;;;;;8.60;3.00;;;;;27.10;97655.00;;;;110852;1252;41976;-70
2022/05/13 05:36:11;;;;;;;10.10;3.00;;;;;27.50;97657.80;;;;110943;1251;42218;-71
2022/05/13 05:38:40;;;;;;;7.80;2.80;;;;;27.90;97656.00;;;;111052;1249;41586;-71
2022/05/13 05:41:10;;;;;;;7.80;2.80;;;;;28.22;97659.20;;;;110948;1251;41254;-71
2022/05/13 05:43:38;;;;;;;7.70;2.80;;;;;28.60;97658.00;;;;110963;1250;41259;-70
2022/05/13 05:46:07;;;;;;;6.50;2.70;;;;;28.80;97657.80;;;;110972;1250;41465;-70
2022/05/13 05:48:37;;;;;;;7.00;2.40;;;;;29.00;97660.40;;;;111100;1250;41609;-71
2022/05/13 05:51:06;;;;;;;6.90;2.70;;;;;29.20;97655.60;;;;110940;1250;41935;-71
2022/05/13 05:59:11;;;;;;;13.80;3.10;;;;;29.20;97658.00;;;;110802;1250;41155;-71
2022/05/13 06:01:40;;;;;;;5.60;2.20;;;;;29.04;97658.40;;;;110809;1251;41153;-72
2022/05/13 06:04:11;;;;;;;7.90;2.70;;;;;29.20;97662.40;;;;111016;1251;41135;-72
2022/05/13 06:06:40;;;;;;;7.70;2.90;;;;;29.44;97666.80;;;;110901;1250;42368;-71
2022/05/13 06:09:10;;;;;;;6.90;2.70;;;;;29.32;97667.40;;;;111028;1250;42345;-71
2022/05/13 06:11:39;;;;;;;6.40;2.50;;;;;29.30;97668.80;;;;110837;1253;41185;-71
2022/05/13 06:14:09;;;;;;;;;;;;;29.40;97672.80;;;;110784;1253;41172;-71
2022/05/13 06:16:39;;;;;;;8.80;3.00;;;;;29.70;97675.60;;;;110990;1250;41152;-71
2022/05/13 06:19:08;;;;;;;8.60;2.80;;;;;29.66;97672.80;;;;110949;1252;41155;-71
2022/05/13 06:21:37;;;;;;;7.90;2.50;;;;;30.00;97672.60;;;;110936;1251;41152;-71
2022/05/13 06:24:07;;;;;;;8.30;3.00;;;;;29.66;97672.40;;;;110822;1250;41937;-70
2022/05/13 06:26:36;;;;;;;8.30;2.70;;;;;29.82;97671.40;;;;110923;1251;41158;-71
2022/05/13 06:29:06;;;;;;;6.50;2.50;;;;;29.42;97673.20;;;;110955;1250;41141;-70
2022/05/13 06:31:36;;;;;;;15.50;2.40;;;;;29.36;97670.40;;;;111017;1250;41486;-71
2022/05/13 06:34:05;;;;;;;8.30;2.70;;;;;29.52;97672.40;;;;111098;1250;41740;-71
2022/05/13 06:36:34;;;;;;;5.90;2.30;;;;;29.90;97674.80;;;;110834;1251;42039;-71
2022/05/13 06:39:04;;;;;;;5.80;2.30;;;;;30.00;97672.80;;;;110810;1251;41141;-70
2022/05/13 06:41:37;;;;;;;7.40;2.60;;;;;30.48;97673.60;;;;110892;1251;40798;-71
2022/05/13 06:44:08;;;;;;;9.30;2.60;;;;;30.76;97675.60;;;;110822;1251;41378;-70
2022/05/13 06:46:39;;;;;;;7.40;2.60;;;;;30.84;97668.40;;;;110951;1251;41143;-72
2022/05/13 06:49:10;;;;;;;5.50;2.10;;;;;31.24;97671.60;;;;111000;1250;42346;-71
2022/05/13 06:51:40;;;;;;;8.00;2.80;;;;;31.30;97667.60;;;;111003;1250;41621;-71
2022/05/13 06:54:12;;;;;;;6.10;2.40;;;;;31.60;97663.40;;;;110864;1250;41264;-72
2022/05/13 06:57:12;;;;;;;5.10;2.30;;;;;31.42;97665.80;;;;110767;1251;41158;-77
2022/05/13 06:59:50;;;;;;;7.70;2.60;;;;;31.42;97662.40;;;;110967;1251;41160;-72
2022/05/13 07:02:21;;;;;;;6.70;2.10;;;;;31.74;97659.80;;;;110906;1250;41890;-70
2022/05/13 07:04:50;;;;;;;8.60;2.40;;;;;31.80;97659.80;;;;110938;1250;41591;-71
2022/05/13 07:07:20;;;;;;;6.90;2.50;;;;;32.06;97661.20;;;;111108;1250;42313;-71
2022/05/13 07:09:51;;;;;;;6.30;2.50;;;;;31.66;97665.20;;;;110890;1247;41440;-71
2022/05/13 07:12:22;;;;;;;9.00;2.80;;;;;31.20;97665.80;;;;111036;1250;41683;-71
2022/05/13 07:14:53;;;;;;;6.20;2.50;;;;;30.68;97668.00;;;;110899;1250;41140;-71
2022/05/13 07:17:23;;;;;;;7.80;2.70;;;;;29.96;97670.80;;;;111102;1251;42268;-70
2022/05/13 07:19:55;;;;;;;9.50;2.60;;;;;29.68;97670.20;;;;110790;1250;41612;-71
2022/05/13 07:22:24;;;;;;;6.50;2.50;;;;;29.54;97666.00;;;;110819;1251;41145;-70
2022/05/13 07:24:52;;;;;;;6.90;2.60;;;;;29.60;97666.40;;;;110986;1251;41276;-71
2022/05/13 07:27:22;;;;;;;6.30;2.20;;;;;29.34;97671.40;;;;111129;1250;42056;-71
2022/05/13 07:29:51;;;;;;;8.40;2.90;;;;;29.20;97668.80;;;;110917;1250;41121;-70
2022/05/13 07:32:20;;;;;;;6.40;2.40;;;;;29.10;97668.40;;;;110878;1251;42172;-71
2022/05/13 07:34:49;;;;;;;8.20;2.80;;;;;28.80;97664.60;;;;110964;1251;41153;-73
2022/05/13 07:37:19;;;;;;;9.70;2.70;;;;;28.30;97672.60;;;;110967;1251;41299;-70
2022/05/13 07:42:35;;;;;;;6.50;2.60;;;;;28.20;97665.60;;;;111066;1250;41152;-69
2022/05/13 07:45:05;;;;;;;7.40;2.60;;;;;28.02;97670.80;;;;111129;1250;41936;-70
2022/05/13 07:47:34;;;;;;;8.10;2.80;;;;;28.20;97670.80;;;;110926;1251;41863;-71
2022/05/13 07:50:04;;;;;;;7.00;2.70;;;;;28.50;97672.60;;;;110985;1251;41899;-70
2022/05/13 07:52:33;;;;;;;6.70;2.50;;;;;28.70;97665.20;;;;110991;1250;41947;-70
2022/05/13 07:55:03;;;;;;;10.30;2.50;;;;;28.80;97666.40;;;;110991;1251;41207;-70
2022/05/13 07:57:32;;;;;;;5.30;2.20;;;;;29.16;97667.40;;;;110924;1250;42144;-71
2022/05/13 08:02:59;;;;;;;7.80;2.90;;;;;30.28;97663.20;;;;110925;1250;43093;-72
2022/05/13 08:05:31;;;;;;;7.50;2.90;;;;;30.50;97662.80;;;;110873;1251;41648;-72
2022/05/13 08:08:06;;;;;;;6.00;2.60;;;;;30.86;97662.00;;;;110937;1250;42283;-74
2022/05/13 08:10:38;;;;;;;9.60;3.10;;;;;31.44;97656.20;;;;110993;1251;41145;-72
2022/05/13 08:13:08;;;;;;;8.50;2.80;;;;;31.34;97655.80;;;;110825;1251;41169;-72
2022/05/13 08:15:38;;;;;;;6.40;2.30;;;;;31.48;97648.00;;;;110978;1251;41297;-73
2022/05/13 08:18:07;;;;;;;4.90;2.20;;;;;31.86;97643.20;;;;110772;1250;41439;-73
2022/05/13 08:20:44;;;;;;;10.70;2.70;;;;;32.58;97640.00;;;;110909;1251;41140;-72
2022/05/13 08:23:15;;;;;;;6.60;2.50;;;;;33.00;97636.60;;;;110910;1251;41266;-71
2022/05/13 08:25:47;;;;;;;8.60;2.50;;;;;33.34;97633.80;;;;111044;1251;41273;-72
2022/05/13 08:28:18;;;;;;;6.90;2.60;;;;;33.70;97637.20;;;;111040;1251;41471;-72
2022/05/13 08:30:48;;;;;;;5.90;2.00;;;;;33.92;97638.00;;;;111037;1251;41366;-72
2022/05/13 08:33:17;;;;;;;12.30;2.80;;;;;34.20;97634.80;;;;111032;1251;42652;-72
2022/05/13 08:35:52;;;;;;;6.70;2.20;;;;;34.42;97628.60;;;;110801;1253;41300;-74
2022/05/13 08:38:26;;;;;;;6.70;2.50;;;;;34.56;97625.60;;;;110898;1251;41248;-73
2022/05/13 08:41:28;;;;;;;5.60;2.40;;;;;35.08;97623.80;;;;110636;1252;41214;-71
2022/05/13 08:44:03;;;;;;;8.10;2.70;;;;;35.14;97614.80;;;;110840;1253;41372;-73
2022/05/13 08:46:50;;;;;;;6.20;2.50;;;;;35.18;97613.60;;;;110745;1252;40846;-71
2022/05/13 08:49:47;;;;;;;6.80;2.60;;;;;35.84;97617.40;;;;110759;1251;41399;-71
2022/05/13 08:55:26;;;;;;;7.80;2.70;;;;;35.62;97613.20;;;;110748;1253;41266;-70
2022/05/13 08:57:57;;;;;;;5.90;2.20;;;;;36.20;97612.40;;;;110849;1251;41144;-73
2022/05/13 09:00:33;;;;;;;6.00;2.30;;;;;36.68;97601.40;;;;110941;1250;41216;-70
2022/05/13 09:03:45;;;;;;;6.00;2.30;;;;;37.56;97601.00;;;;110745;1250;41470;-69
2022/05/13 09:06:21;;;;;;;6.50;2.30;;;;;38.10;97599.80;;;;110413;1250;42410;-70
2022/05/13 09:08:50;;;;;;;8.70;2.80;;;;;38.00;97600.80;;;;110877;1251;41656;-70
2022/05/13 09:11:34;;;;;;;5.60;2.30;;;;;37.98;97597.40;;;;110859;1251;41154;-71
2022/05/13 09:14:26;;;;;;;7.50;2.60;;;;;38.10;97596.40;;;;110856;1251;41129;-72
2022/05/13 09:17:20;;;;;;;8.60;3.00;;;;;38.30;97597.20;;;;110814;1251;41208;-71
2022/05/13 09:19:57;;;;;;;6.70;2.40;;;;;37.94;97595.40;;;;110908;1251;41648;-69
2022/05/13 09:22:39;;;;;;;8.80;2.70;;;;;37.60;97596.80;;;;110858;1251;41013;-70
2022/05/13 09:25:32;;;;;;;8.90;2.80;;;;;37.70;97592.20;;;;111008;1250;41271;-70
2022/05/13 09:28:10;;;;;;;7.30;2.40;;;;;37.28;97586.20;;;;110871;1249;41730;-71
2022/05/13 09:30:44;;;;;;;9.10;2.50;;;;;36.90;97582.00;;;;110866;1251;41692;-71
2022/05/13 09:33:32;;;;;;;7.00;2.10;;;;;36.98;97576.20;;;;110861;1251;41131;-69
2022/05/13 09:36:16;;;;;;;8.00;2.50;;;;;36.70;97576.20;;;;110860;1250;41162;-70
2022/05/13 09:38:50;;;;;;;5.50;2.30;;;;;36.70;97576.40;;;;110831;1251;41260;-69
2022/05/13 09:41:32;;;;;;;6.90;2.50;;;;;36.58;97573.40;;;;110940;1251;41158;-71
2022/05/13 09:44:05;;;;;;;6.80;2.40;;;;;37.08;97565.20;;;;110920;1251;41589;-70
2022/05/13 09:46:45;;;;;;;6.40;2.00;;;;;36.86;97559.80;;;;110954;1251;41971;-71
2022/05/13 09:49:36;;;;;;;7.90;1.90;;;;;36.58;97553.60;;;;110956;1251;40740;-69
2022/05/13 09:52:18;;;;;;;4.90;1.90;;;;;36.82;97551.60;;;;110962;1250;41249;-71
2022/05/13 09:54:48;;;;;;;5.90;1.90;;;;;37.14;97544.00;;;;110935;1253;41946;-71
2022/05/13 09:57:27;;;;;;;3.50;1.60;;;;;37.14;97538.40;;;;110609;1251;397904;-70
2022/05/13 09:59:59;;;;;;;;;;;;;37.60;97533.00;;;;110956;1251;41248;-70
2022/05/13 10:02:45;;;;;;;3.20;1.40;;;;;37.80;97530.60;;;;111032;1251;41144;-70
2022/05/13 10:05:29;;;;;;;7.50;1.70;;;;;37.90;97526.60;;;;110986;1251;40924;-69
2022/05/13 10:08:00;;;;;;;4.40;1.60;;;;;37.70;97524.00;;;;110875;1252;41806;-69
2022/05/13 10:16:33;;;;;;;6.00;1.90;;;;;38.40;97515.40;;;;110817;1251;40871;-72
2022/05/13 10:19:14;;;;;;;6.30;2.30;;;;;38.22;97519.60;;;;110994;1251;41180;-72
2022/05/13 10:22:19;;;;;;;;;;;;;38.18;97519.80;;;;110864;1253;41664;-72
2022/05/13 10:25:03;;;;;;;6.40;2.10;;;;;37.88;97523.00;;;;110358;1258;41376;-70
2022/05/13 10:28:10;;;;;;;5.80;2.40;;;;;38.00;97518.20;;;;110967;1251;41153;-72
2022/05/13 10:30:58;;;;;;;5.60;2.00;;;;;37.10;97516.00;;;;110426;1257;42009;-69
2022/05/13 10:33:37;;;;;;;8.20;2.80;;;;;36.82;97523.60;;;;110320;1258;41661;-70
2022/05/13 10:36:22;;;;;;;8.30;2.40;;;;;36.26;97514.40;;;;110441;1257;41359;-70
2022/05/13 10:39:05;;;;;;;7.80;2.70;;;;;35.64;97516.20;;;;110167;1257;41158;-70
2022/05/13 10:41:59;;;;;;;9.10;2.30;;;;;35.30;97509.40;;;;110104;1260;40918;-69
2022/05/13 10:44:58;;;;;;;7.70;2.80;;;;;35.18;97503.60;;;;110173;1259;41489;-72
2022/05/13 10:47:42;;;;;;;6.70;2.10;;;;;35.12;97493.00;;;;110577;1257;41140;-71
2022/05/13 10:50:33;;;;;;;9.90;2.60;;;;;35.02;97495.60;;;;110114;1260;41155;-70
2022/05/13 10:53:22;;;;;;;8.80;2.70;;;;;34.02;97487.80;;;;110475;1257;41164;-72
2022/05/13 10:56:08;;;;;;;5.00;1.90;;;;;33.40;97486.40;;;;110425;1258;41167;-68
2022/05/13 10:58:58;;;;;;;5.60;2.10;;;;;33.94;97485.40;;;;110470;1257;41154;-68
2022/05/13 11:01:56;;;;;;;7.60;2.40;;;;;33.98;97484.80;;;;110439;1257;42354;-70
2022/05/13 11:04:31;;;;;;;4.70;2.10;;;;;34.90;97477.00;;;;110489;1251;41816;-69
2022/05/13 11:07:05;;;;;;;7.90;2.70;;;;;36.34;97467.80;;;;111006;1251;41146;-68
2022/05/13 11:09:56;;;;;;;6.90;2.50;;;;;36.82;97466.80;;;;111117;1250;41697;-70
2022/05/13 11:12:50;;;;;;;6.80;2.20;;;;;37.20;97462.00;;;;111015;1251;41348;-73
2022/05/13 11:15:38;;;;;;;6.60;2.40;;;;;37.58;97454.40;;;;110904;1250;42486;-70
2022/05/13 11:18:31;;;;;;;6.20;2.10;;;;;37.78;97457.00;;;;110937;1250;41371;-72
2022/05/13 11:21:10;;;;;;;6.10;2.50;;;;;37.20;97459.80;;;;110943;1251;41802;-72
2022/05/13 11:26:43;;;;;;;6.90;1.90;;;;;37.08;97447.40;;;;110883;1251;41144;-72
2022/05/13 11:29:16;;;;;;;6.00;2.10;;;;;37.48;97449.20;;;;110963;1249;41251;-71
2022/05/13 11:32:25;;;;;;;7.40;2.70;;;;;37.50;97450.40;;;;110925;1248;41557;-71
2022/05/13 11:35:10;;;;;;;5.30;2.00;;;;;36.18;97446.40;;;;111041;1250;40955;-71
2022/05/13 11:37:40;;;;;;;4.90;1.90;;;;;34.98;97445.00;;;;111063;1250;41165;-69
2022/05/13 11:40:30;;;;;;;10.00;2.50;;;;;34.90;97445.40;;;;110946;1248;41615;-69
2022/05/13 11:43:21;;;;;;;5.90;2.10;;;;;34.60;97445.20;;;;110714;1251;41153;-70
2022/05/13 11:46:01;;;;;;;4.10;1.90;;;;;34.30;97443.00;;;;111000;1250;41193;-73
2022/05/13 11:48:42;;;;;;;5.40;2.10;;;;;34.00;97439.00;;;;111023;1250;41130;-69
2022/05/13 11:51:19;;;;;;;3.70;1.90;;;;;33.90;97432.00;;;;110945;1250;41263;-70
2022/05/13 11:54:10;;;;;;;6.60;2.10;;;;;33.80;97427.80;;;;110936;1250;42311;-71
2022/05/13 11:56:42;;;;;;;4.40;1.90;;;;;33.60;97424.20;;;;110818;1250;41401;-72
2022/05/13 11:59:31;;;;;;;5.70;2.00;;;;;33.50;97415.00;;;;110908;1250;41155;-71
2022/05/13 12:02:12;;;;;;;3.60;1.70;;;;;33.28;97412.00;;;;110972;1251;41201;-71
2022/05/13 12:05:10;;;;;;;4.10;1.90;;;;;33.02;97413.40;;;;110999;1251;41156;-71
2022/05/13 12:08:19;;;;;;;4.80;1.90;;;;;32.90;97409.60;;;;111016;1251;41615;-69
2022/05/13 12:11:14;;;;;;;4.20;1.80;;;;;32.76;97403.00;;;;111139;1248;41138;-71
2022/05/13 12:14:01;;;;;;;4.90;1.70;;;;;32.70;97402.20;;;;111165;1250;41257;-71
2022/05/13 12:16:50;;;;;;;4.50;1.80;;;;;32.70;97402.80;;;;111061;1251;40727;-68
2022/05/13 12:19:41;;;;;;;3.90;1.80;;;;;32.70;97399.80;;;;111058;1249;41134;-69
2022/05/13 12:22:19;;;;;;;4.80;1.90;;;;;32.70;97398.20;;;;111087;1250;41606;-70
2022/05/13 12:25:02;;;;;;;4.50;1.80;;;;;32.80;97396.20;;;;110816;1251;42199;-72
2022/05/13 12:27:34;;;;;;;4.10;1.60;;;;;32.70;97398.60;;;;110755;1250;41145;-72
2022/05/13 12:30:39;;;;;;;4.20;1.80;;;;;32.60;97394.00;;;;111005;1250;40906;-71
2022/05/13 12:33:20;;;;;;;4.70;1.90;;;;;32.66;97389.80;;;;111021;1250;41987;-71
2022/05/13 12:39:04;;;;;;;7.40;2.00;;;;;32.42;97365.60;;;;110812;1251;42327;-71
2022/05/13 12:41:44;;;;;;;4.90;2.00;;;;;32.40;97351.20;;;;111014;1250;41033;-70
2022/05/13 12:44:14;;;;;;;5.90;1.90;;;;;32.40;97348.60;;;;111123;1249;41605;-72
2022/05/13 12:46:47;;;;;;;;;;;;;32.20;97355.40;;;;111146;1250;41154;-73
2022/05/13 12:49:25;;;;;;;3.60;1.80;;;;;32.30;97366.20;;;;110851;1250;41619;-72
2022/05/13 12:52:10;;;;;;;7.60;2.20;;;;;32.40;97367.60;;;;110888;1251;41173;-72
2022/05/13 12:54:48;;;;;;;5.20;2.00;;;;;32.40;97374.00;;;;110876;1250;41619;-70
2022/05/13 12:57:48;;;;;;;5.00;2.10;;;;;32.40;97377.00;;;;110774;1252;41536;-71
2022/05/13 13:00:36;;;;;;;4.80;1.90;;;;;32.20;97385.80;;;;110965;1251;41761;-71
2022/05/13 13:03:07;;;;;;;4.80;2.10;;;;;32.20;97385.20;;;;110831;1251;42152;-71
2022/05/13 13:05:39;;;;;;;7.90;2.40;;;;;32.10;97385.80;;;;110898;1251;41156;-75
2022/05/13 13:08:14;;;;;;;6.00;2.00;;;;;32.00;97381.00;;;;110794;1251;41160;-68
2022/05/13 13:11:01;;;;;;;4.30;2.00;;;;;31.90;97378.80;;;;110833;1251;41193;-73
2022/05/13 13:13:37;;;;;;;4.50;2.00;;;;;31.70;97380.20;;;;110752;1251;41530;-71
2022/05/13 13:16:21;;;;;;;4.20;2.00;;;;;31.54;97377.00;;;;110839;1251;41140;-73
2022/05/13 13:19:13;;;;;;;6.10;2.10;;;;;31.30;97376.20;;;;110778;1251;41678;-72
2022/05/13 13:21:43;;;;;;;5.90;2.10;;;;;30.94;97369.00;;;;110910;1251;41602;-74
2022/05/13 13:24:19;;;;;;;5.50;2.10;;;;;30.80;97371.40;;;;110988;1251;41370;-72